• Join FlightAware (Why Join?)
  • Login
  • US Flag 
10:31PM EDT


 

Airport Tracker/Info


-or-


 

Live Flight TrackerFlight Track Log ✈ N716SM ✈ 16-Jul-2014 ✈ KLCI - KPNE

Flight Track Log - Related Links

Times and Time Zones

All times are in EDT time to prevent confusion due to time zone crossing. See the N716SM flight status page for this flight to view local times or setup timezone preferences in your user account.

Time Position Orientation Groundspeed Altitude Reporting Facility
EDT Latitude Longitude Course Direction KTS MPH feet Rate Location/Type
01:00PM 43.6000 -71.3500 90° East 153 176 3,100  Level KA90
01:02PM 43.6000 -71.2817 90° East 160 184 5,800 1,680 Climbing Boston Center
01:03PM 43.5594 -71.3108 208° Southwest 165 190 7,000 1,260 Climbing Boston Center
01:04PM 43.5114 -71.3506 211° Southwest 196 226 8,500 1,740 Climbing Boston Center
01:05PM 43.4617 -71.3878 209° Southwest 193 222 10,600 1,740 Climbing Boston Center
01:06PM 43.4197 -71.4206 210° Southwest 180 207 12,200 1,560 Climbing Boston Center
01:07PM 43.3714 -71.4592 210° Southwest 182 209 13,800 1,500 Climbing Boston Center
01:08PM 43.3258 -71.4944 209° Southwest 185 213 15,300 1,440 Climbing Boston Center
01:09PM 43.2800 -71.5294 209° Southwest 186 214 16,800 1,560 Climbing Boston Center
01:10PM 43.2314 -71.5669 209° Southwest 186 214 18,600 1,500 Climbing Boston Center
01:11PM 43.1922 -71.5942 207° Southwest 184 212 19,900 1,260 Climbing Boston Center
01:12PM 43.1481 -71.6211 204° Southwest 177 204 21,300 1,020 Climbing Boston Center
01:13PM 43.1022 -71.6489 204° Southwest 180 207 22,000 300 Climbing Boston Center
01:14PM 43.0358 -71.6911 205° Southwest 219 252 22,000  Level Boston Center
01:15PM 42.9761 -71.7292 205° Southwest 235 270 22,000  Level Boston Center
01:16PM 42.9133 -71.7694 205° Southwest 246 283 22,000  Level Boston Center
01:17PM 42.8486 -71.8067 203° Southwest 248 285 22,000  Level Boston Center
01:18PM 42.7839 -71.8483 205° Southwest 254 292 22,000  Level Boston Center
01:19PM 42.7186 -71.8881 204° Southwest 258 297 22,000  Level Boston Center
01:20PM 42.6539 -71.9294 205° Southwest 256 295 22,000  Level Boston Center
01:21PM 42.5881 -71.9692 204° Southwest 257 296 22,000  Level Boston Center
01:22PM 42.5081 -72.0186 204° Southwest 261 300 22,000  Level Boston Center
01:23PM 42.4408 -72.0586 204° Southwest 261 300 22,000  Level Boston Center
01:24PM 42.3753 -72.0997 205° Southwest 261 300 22,000  Level Boston Center
01:25PM 42.3078 -72.1400 204° Southwest 262 302 22,000  Level Boston Center
01:26PM 42.2403 -72.1800 204° Southwest 262 302 22,000  Level Boston Center
01:27PM 42.1731 -72.2217 205° Southwest 262 302 22,000  Level Boston Center
01:28PM 42.1067 -72.2619 204° Southwest 262 302 22,000  Level Boston Center
01:29PM 42.0256 -72.3103 204° Southwest 263 303 22,000  Level Boston Center
01:30PM 41.9578 -72.3517 204° Southwest 263 303 22,000  Level Boston Center
01:31PM 41.8917 -72.3906 204° Southwest 263 303 22,000  Level Boston Center
01:32PM 41.8247 -72.4297 204° Southwest 263 303 22,000  Level Boston Center
01:33PM 41.7583 -72.4694 204° Southwest 263 303 22,000  Level Boston Center
01:34PM 41.6906 -72.5097 204° Southwest 263 303 22,000  Level Boston Center
01:35PM 41.6239 -72.5503 204° Southwest 263 303 22,000  Level Boston Center
01:36PM 41.5567 -72.5892 203° Southwest 263 303 22,000  Level Boston Center
01:38PM 41.4850 -72.6319 204° Southwest 263 303 22,000  Level Boston Center
01:39PM 41.4181 -72.6703 203° Southwest 263 303 22,000  Level Boston Center
01:40PM 41.3389 -72.7169 204° Southwest 263 303 22,000  Level Boston Center
01:41PM 41.2728 -72.7569 204° Southwest 262 302 22,000  Level Boston Center
01:42PM 41.2075 -72.7792 194° South 262 302 22,000  Level Boston Center
01:43PM 41.1356 -72.7981 191° South 262 302 22,000  Level Boston Center
01:44PM 41.0650 -72.8186 192° South 262 302 22,000  Level Boston Center
01:45PM 40.9800 -72.8422 192° South 262 302 22,000 -300 Level Boston Center
01:46PM 40.9111 -72.8742 199° South 263 303 21,400 -900 Descending Boston Center
01:47PM 40.8397 -72.9242 208° Southwest 286 329 20,200 -1,140 Descending Boston Center
01:48PM 40.7678 -72.9731 207° Southwest 291 335 19,100 -900 Descending Boston Center
01:49PM 40.7028 -73.0167 207° Southwest 270 311 18,400 -1,020 Descending Boston Center
01:50PM 40.6439 -73.0561 207° Southwest 245 282 17,100 -1,200 Descending Boston Center
01:51PM 40.5833 -73.0953 206° Southwest 244 281 16,000 -540 Descending Boston Center
01:52PM 40.5058 -73.1461 207° Southwest 256 295 16,000  Level Boston Center
01:53PM 40.4403 -73.1892 207° Southwest 260 299 16,000  Level Boston Center
01:54PM 40.3753 -73.2322 207° Southwest 260 299 16,000 -540 Level Boston Center
01:55PM 40.3114 -73.2756 207° Southwest 261 300 14,900 -1,200 Descending Boston Center
01:56PM 40.2456 -73.3183 206° Southwest 261 300 13,600 -1,440 Descending Boston Center
01:57PM 40.1811 -73.3619 207° Southwest 262 302 12,000 -1,920 Descending Boston Center
01:58PM 40.1192 -73.4031 207° Southwest 251 289 9,700 -2,280 Descending Boston Center
01:59PM 40.0575 -73.4456 208° Southwest 251 289 7,400 -2,100 Descending Boston Center
02:00PM 40.0486 -73.5569 264° West 255 293 5,400 -1,800 Descending Boston Center
02:01PM 40.0392 -73.6394 262° West 256 295 4,000 -780 Descending New York Center
02:02PM 40.0267 -73.7283 260° West 256 295 4,000 -60 Level New York Center
02:03PM 40.0306 -73.8153 273° West 251 289 3,900  Descending New York Center
02:04PM 40.0556 -73.9003 291° West 251 289 4,000  Climbing New York Center
02:05PM 40.0761 -73.9856 288° West 251 289 4,000  Level New York Center
02:06PM 40.0947 -74.0622 288° West 251 289 4,000  Level New York Center
02:07PM 40.1028 -74.1522 277° West 251 289 4,000 -300 Level New York Center
02:08PM 40.0997 -74.2497 268° West 246 283 3,500 -360 Descending New York Center
02:09PM 40.0992 -74.3419 270° West 251 289 3,400 -60 Descending New York Center
02:10PM 40.0967 -74.4233 268° West 251 289 3,400  Level New York Center
02:11PM 40.0939 -74.5100 268° West 251 289 3,400  Level New York Center
02:12PM 40.0931 -74.5994 269° West 251 289 3,400  Level New York Center
02:13PM 40.0900 -74.6969 268° West 251 289 3,400  Level New York Center
02:14PM 40.0869 -74.7864 267° West 251 289 3,500  Climbing New York Center
02:15PM 40.0839 -74.8731 267° West 251 289 3,500  Level New York Center
02:17PM 40.0673 -74.9953 260° West  Level FlightAware Approximate
02:24PM 40.0667 -75.0000 261° West  Level FlightAware Approximate
02:25PM 40.0819 -75.0106 180° South  Level Estimated
02:26PM 40.0819 -75.0106 261° West  Level Estimated
02:27PM 40.0819 -75.0106 152° Southeast  Level Estimated
02:28PM 40.0819 -75.0106 261° West  Level Estimated
02:29PM 40.0819 -75.0106 152° Southeast  Level Estimated
02:30PM 40.0819 -75.0106 261° West  Level Estimated
02:31PM 40.0819 -75.0106 152° Southeast  Level Estimated
02:32PM 40.0819 -75.0106 261° West  Level Estimated
02:33PM 40.0819 -75.0106 152° Southeast  Level Estimated